McCausland, Iowa
Current Conditions -  °F | °C
As of 3:15 PM on Friday 31 Oct 2014 (Local Time) from KCWI Reporting Station
Broken Clouds Broken Clouds  
Wind Chill: 34°   Ceiling: 5000
Heat Index: 43°   Visibility: 10mi
Dew Point: 18°   Wind: 23mph
Humidity: 36%   Direction: 360°N
Pressure: 30.37"   Gusts: 28mph
Location:  41.75°N, 90.44°W
Report Text: KCWI 312015Z 36020G24KT 10SM BKN050 06/M08 A3037 RMK AO1
Loading
Personal Weather Stations






























Interactive Weather Map
Tropical Storm Tracking
New forecast layout! Learn more

10-Day Weather Forecast

Advertisements
Track Severe Weather on mobile